createdAt,value
2018-11-13T00:00:13.896Z,6.59
2018-11-13T00:02:45.006Z,6.58
2018-11-13T00:05:16.135Z,6.78
2018-11-13T00:07:46.934Z,6.66
2018-11-13T00:10:23.078Z,6.60
2018-11-13T00:12:53.837Z,6.65
2018-11-13T00:15:24.746Z,6.68
2018-11-13T00:17:55.618Z,6.76
2018-11-13T00:20:26.382Z,6.75
2018-11-13T00:22:57.152Z,6.70
2018-11-13T00:25:28.338Z,6.56
2018-11-13T00:27:59.131Z,6.56
2018-11-13T00:30:29.881Z,6.43
2018-11-13T00:33:06.790Z,6.37
2018-11-13T00:35:38.041Z,6.29
2018-11-13T00:38:09.209Z,6.32
2018-11-13T00:40:40.016Z,6.40
2018-11-13T00:43:10.779Z,6.40
2018-11-13T00:45:42.892Z,6.45
2018-11-13T00:48:13.545Z,6.52
2018-11-13T00:50:44.630Z,6.36
2018-11-13T00:53:15.059Z,6.37
2018-11-13T00:55:45.912Z,6.27
2018-11-13T00:58:16.674Z,6.29
2018-11-13T01:00:47.770Z,6.39
2018-11-13T01:03:18.907Z,6.41
2018-11-13T01:05:56.209Z,6.43
2018-11-13T01:08:26.997Z,6.37
2018-11-13T01:10:57.694Z,6.33
2018-11-13T01:13:28.730Z,6.35
2018-11-13T01:15:59.125Z,6.34
2018-11-13T01:18:29.834Z,6.24
2018-11-13T01:21:01.115Z,6.14
2018-11-13T01:23:33.615Z,6.13
2018-11-13T01:26:08.050Z,6.00
2018-11-13T01:28:38.734Z,5.96
2018-11-13T01:31:09.901Z,5.95
2018-11-13T01:33:40.682Z,5.94
2018-11-13T01:36:11.547Z,5.97
2018-11-13T01:38:42.674Z,6.09
2018-11-13T01:41:13.384Z,6.11
2018-11-13T01:43:44.215Z,6.13
2018-11-13T01:46:15.058Z,6.20
2018-11-13T01:48:47.198Z,6.29
2018-11-13T01:51:17.922Z,6.19
2018-11-13T01:53:48.612Z,6.10
2018-11-13T01:56:19.320Z,5.94
2018-11-13T01:58:50.026Z,5.93
2018-11-13T02:01:21.040Z,5.86
2018-11-13T02:03:51.830Z,5.68
2018-11-13T02:06:22.557Z,5.60
2018-11-13T02:08:53.216Z,5.56
2018-11-13T02:11:24.555Z,5.51
2018-11-13T02:13:55.274Z,5.42
2018-11-13T02:16:25.922Z,5.27
2018-11-13T02:18:56.655Z,5.28
2018-11-13T02:21:27.862Z,5.18
2018-11-13T02:23:58.537Z,5.17
2018-11-13T02:26:29.437Z,5.12
2018-11-13T02:29:00.210Z,5.20
2018-11-13T02:31:32.533Z,5.21
2018-11-13T02:34:06.183Z,5.35
2018-11-13T02:36:37.265Z,5.46
2018-11-13T02:39:09.800Z,5.43
2018-11-13T02:41:41.689Z,5.48
2018-11-13T02:44:12.347Z,5.61
2018-11-13T02:46:43.035Z,5.44
2018-11-13T02:49:13.773Z,5.47
2018-11-13T02:51:44.549Z,5.42
2018-11-13T02:54:15.326Z,5.38
2018-11-13T02:56:46.034Z,5.39
2018-11-13T02:59:16.793Z,5.30
2018-11-13T03:01:47.454Z,5.10
2018-11-13T03:04:18.196Z,5.09
2018-11-13T03:06:48.894Z,4.96
2018-11-13T03:09:19.631Z,5.04
2018-11-13T03:11:50.415Z,5.12
2018-11-13T03:14:21.547Z,5.12
2018-11-13T03:16:52.286Z,5.09
2018-11-13T03:19:23.074Z,5.18
2018-11-13T03:21:54.371Z,5.20
2018-11-13T03:24:25.124Z,5.01
2018-11-13T03:26:56.274Z,4.87
2018-11-13T03:29:26.930Z,4.90
2018-11-13T03:31:57.679Z,4.84
2018-11-13T03:34:28.396Z,4.87
2018-11-13T03:36:59.151Z,4.89
2018-11-13T03:39:29.875Z,4.86
2018-11-13T03:42:00.895Z,4.82
2018-11-13T03:44:36.181Z,4.73
2018-11-13T03:47:07.971Z,4.78
2018-11-13T03:49:39.811Z,4.82
2018-11-13T03:52:10.627Z,4.72
2018-11-13T03:54:41.553Z,4.68
2018-11-13T03:57:12.277Z,4.55
2018-11-13T03:59:43.126Z,4.58
2018-11-13T04:02:13.867Z,4.57
2018-11-13T04:04:45.016Z,4.64
2018-11-13T04:07:15.781Z,4.66
2018-11-13T04:09:46.543Z,4.67
2018-11-13T04:12:18.395Z,4.73
2018-11-13T04:14:49.163Z,4.71
2018-11-13T04:17:19.805Z,4.74
2018-11-13T04:19:50.987Z,4.73
2018-11-13T04:22:23.161Z,4.73
2018-11-13T04:24:53.922Z,4.68
2018-11-13T04:27:24.968Z,4.72
2018-11-13T04:29:56.247Z,4.70
2018-11-13T04:32:27.087Z,4.63
2018-11-13T04:34:57.900Z,4.60
2018-11-13T04:37:28.880Z,4.61
2018-11-13T04:39:59.570Z,4.61
2018-11-13T04:42:30.587Z,4.61
2018-11-13T04:45:03.623Z,4.57
2018-11-13T04:47:34.538Z,4.53
2018-11-13T04:50:07.521Z,4.51
2018-11-13T04:52:38.316Z,4.52
2018-11-13T04:55:09.710Z,4.50
2018-11-13T04:57:41.847Z,4.52
2018-11-13T05:00:14.982Z,4.53
2018-11-13T05:02:46.547Z,4.52
2018-11-13T05:05:18.186Z,4.45
2018-11-13T05:07:50.032Z,4.47
2018-11-13T05:10:21.375Z,4.45
2018-11-13T05:26:27.233Z,4.33
2018-11-13T05:28:58.012Z,4.31
2018-11-13T05:31:28.711Z,4.32
2018-11-13T05:33:59.718Z,4.35
2018-11-13T05:36:30.498Z,4.35
2018-11-13T05:39:03.271Z,4.50
2018-11-13T05:41:33.957Z,4.48
2018-11-13T05:44:07.389Z,4.38
2018-11-13T05:46:39.514Z,4.32
2018-11-13T05:49:10.367Z,4.32
2018-11-13T05:51:41.103Z,4.35
2018-11-13T05:54:11.972Z,4.36
2018-11-13T05:56:42.701Z,4.38
2018-11-13T05:59:14.235Z,4.47
2018-11-13T06:01:45.613Z,4.46
2018-11-13T06:04:16.399Z,4.42
2018-11-13T06:06:47.997Z,4.42
2018-11-13T06:09:18.894Z,4.45
2018-11-13T06:11:49.555Z,4.45
2018-11-13T06:14:20.341Z,4.47
2018-11-13T06:16:51.002Z,4.43
2018-11-13T06:19:22.238Z,4.38
2018-11-13T06:21:53.446Z,4.36
2018-11-13T06:24:24.969Z,4.38
2018-11-13T06:26:55.682Z,4.35
2018-11-13T06:29:26.382Z,4.33
2018-11-13T06:31:57.124Z,4.31
2018-11-13T06:34:27.834Z,4.33
2018-11-13T06:36:58.533Z,4.31
2018-11-13T06:39:29.165Z,4.39
2018-11-13T06:41:59.880Z,4.34
2018-11-13T06:44:30.543Z,4.43
2018-11-13T06:47:04.931Z,4.32
2018-11-13T06:49:35.662Z,4.40
2018-11-13T06:52:07.944Z,4.30
2018-11-13T06:54:51.920Z,4.30
2018-11-13T06:57:29.317Z,4.26
2018-11-13T07:00:03.123Z,4.17
2018-11-13T07:02:33.858Z,4.07
2018-11-13T07:05:08.305Z,4.01
2018-11-13T07:07:39.140Z,4.03
2018-11-13T07:10:11.779Z,4.00
2018-11-13T07:12:44.438Z,3.96
2018-11-13T07:15:17.008Z,4.08
2018-11-13T07:17:49.412Z,4.21
2018-11-13T07:20:22.019Z,4.07
2018-11-13T07:22:52.714Z,4.14
2018-11-13T07:25:24.086Z,4.18
2018-11-13T07:27:55.311Z,4.26
2018-11-13T07:30:26.936Z,4.21
2018-11-13T07:32:57.632Z,4.33
2018-11-13T07:35:28.386Z,4.27
2018-11-13T07:38:00.115Z,4.30
2018-11-13T07:40:34.514Z,4.27
2018-11-13T07:43:07.925Z,4.32
2018-11-13T07:45:38.641Z,4.38
2018-11-13T07:48:09.803Z,4.52
2018-11-13T07:50:40.522Z,4.54
2018-11-13T07:53:11.262Z,4.64
2018-11-13T07:55:41.950Z,4.66
2018-11-13T07:58:12.660Z,4.73
2018-11-13T08:00:46.242Z,4.82
2018-11-13T08:03:26.964Z,4.86
2018-11-13T08:05:57.634Z,4.76
2018-11-13T08:08:28.493Z,4.78
2018-11-13T08:10:59.389Z,4.92
2018-11-13T08:13:30.309Z,5.02
2018-11-13T08:16:04.338Z,5.13
2018-11-13T08:18:35.070Z,5.18
2018-11-13T08:21:05.795Z,5.20
2018-11-13T08:23:36.574Z,5.32
2018-11-13T08:26:07.874Z,5.37
2018-11-13T08:28:38.655Z,5.48
2018-11-13T08:31:09.278Z,5.64
2018-11-13T08:33:40.704Z,5.82
2018-11-13T08:36:14.371Z,5.96
2018-11-13T08:38:45.454Z,6.12
2018-11-13T08:41:16.202Z,6.28
2018-11-13T08:43:47.069Z,6.41
2018-11-13T08:46:17.966Z,6.61
2018-11-13T08:48:48.654Z,6.78
2018-11-13T08:51:19.398Z,6.92
2018-11-13T08:53:50.054Z,7.08
2018-11-13T08:56:20.730Z,7.29
2018-11-13T08:58:51.429Z,7.99
2018-11-13T09:01:22.533Z,9.74
2018-11-13T09:03:54.077Z,11.77
2018-11-13T09:06:24.961Z,13.58
2018-11-13T09:08:55.663Z,14.87
2018-11-13T09:11:26.341Z,16.63
2018-11-13T09:13:58.083Z,18.29
2018-11-13T09:16:28.910Z,19.13
2018-11-13T09:18:59.751Z,20.51
2018-11-13T09:21:30.891Z,19.22
2018-11-13T09:24:05.083Z,18.23
2018-11-13T09:26:35.810Z,18.52
2018-11-13T09:29:07.575Z,17.77
2018-11-13T09:31:38.310Z,16.80
2018-11-13T09:34:10.374Z,17.51
2018-11-13T09:36:41.102Z,18.09
2018-11-13T09:39:12.999Z,17.41
2018-11-13T09:41:43.916Z,19.37
2018-11-13T09:44:14.649Z,18.81
2018-11-13T09:46:45.339Z,18.94
2018-11-13T09:49:16.011Z,17.86
2018-11-13T09:51:46.827Z,17.45
2018-11-13T09:54:17.500Z,18.73
2018-11-13T09:56:48.472Z,18.21
2018-11-13T09:59:19.339Z,18.52
2018-11-13T10:01:50.302Z,18.19
2018-11-13T10:04:21.596Z,18.24
2018-11-13T10:06:51.981Z,18.72
2018-11-13T10:09:22.645Z,19.34
2018-11-13T10:11:53.558Z,20.87
2018-11-13T10:14:24.265Z,21.36
2018-11-13T10:16:55.465Z,20.82
2018-11-13T10:19:26.199Z,21.92
2018-11-13T10:21:56.890Z,23.12
2018-11-13T10:24:27.598Z,24.33
2018-11-13T10:26:58.284Z,24.99
2018-11-13T10:29:29.008Z,25.86
2018-11-13T10:31:59.740Z,25.89
2018-11-13T10:34:30.434Z,26.81
2018-11-13T10:39:37.855Z,28.21
2018-11-13T10:42:08.611Z,27.74
2018-11-13T10:44:39.382Z,28.11
2018-11-13T10:47:10.117Z,26.21
2018-11-13T10:49:40.828Z,27.47
2018-11-13T10:52:11.922Z,27.77
2018-11-13T10:54:42.588Z,28.42
2018-11-13T10:57:14.227Z,28.58
2018-11-13T10:59:44.994Z,29.01
2018-11-13T11:02:20.842Z,28.83
2018-11-13T11:04:51.962Z,28.39
2018-11-13T11:07:22.728Z,28.49
2018-11-13T11:09:53.412Z,28.57
2018-11-13T11:12:24.172Z,29.71
2018-11-13T11:14:54.838Z,29.39
2018-11-13T11:17:25.939Z,28.97
2018-11-13T11:19:57.659Z,30.03
2018-11-13T11:22:28.539Z,30.63
2018-11-13T11:24:59.303Z,29.59
2018-11-13T11:27:30.207Z,29.77
2018-11-13T11:30:00.915Z,29.25
2018-11-13T11:32:37.447Z,30.23
2018-11-13T11:35:08.661Z,30.84
2018-11-13T11:37:40.190Z,30.87
2018-11-13T11:40:12.850Z,31.40
2018-11-13T11:42:43.517Z,29.72
2018-11-13T11:45:15.410Z,29.50
2018-11-13T11:47:46.064Z,28.82
2018-11-13T11:50:16.782Z,30.12
2018-11-13T11:52:47.471Z,30.87
2018-11-13T11:55:18.174Z,30.20
2018-11-13T11:57:49.622Z,29.33
2018-11-13T12:00:24.360Z,29.02
2018-11-13T12:02:55.469Z,28.63
2018-11-13T12:05:27.386Z,26.93
2018-11-13T12:07:58.214Z,26.84
2018-11-13T12:10:28.962Z,27.58
2018-11-13T12:12:59.716Z,27.54
2018-11-13T12:15:30.477Z,28.07
2018-11-13T12:18:07.018Z,28.27
2018-11-13T12:20:37.648Z,28.56
2018-11-13T12:23:08.349Z,28.66
2018-11-13T12:25:39.211Z,28.75
2018-11-13T12:28:09.864Z,28.65
2018-11-13T12:30:40.594Z,26.93
2018-11-13T12:33:11.262Z,26.13
2018-11-13T12:35:41.944Z,25.39
2018-11-13T12:38:12.602Z,24.94
2018-11-13T12:40:46.206Z,25.02
2018-11-13T12:43:16.941Z,25.33
2018-11-13T12:45:47.716Z,25.45
2018-11-13T12:48:18.374Z,24.49
2018-11-13T12:50:54.057Z,23.47
2018-11-13T12:53:24.860Z,21.50
2018-11-13T12:55:56.021Z,20.12
2018-11-13T12:58:28.793Z,19.32
2018-11-13T13:01:02.522Z,18.56
2018-11-13T13:03:33.652Z,18.38
2018-11-13T13:06:07.854Z,18.13
2018-11-13T13:08:38.560Z,18.01
2018-11-13T13:11:10.230Z,18.11
2018-11-13T13:13:45.374Z,17.82
2018-11-13T13:16:17.238Z,17.89
2018-11-13T13:18:48.014Z,18.06
2018-11-13T13:21:19.049Z,17.79
2018-11-13T13:23:50.307Z,17.57
2018-11-13T13:26:21.094Z,17.65
2018-11-13T13:28:52.100Z,17.56
2018-11-13T13:31:22.911Z,17.43
2018-11-13T13:33:53.882Z,17.43
2018-11-13T13:36:24.617Z,17.41
2018-11-13T13:38:55.297Z,17.57
2018-11-13T13:41:26.028Z,17.56
2018-11-13T13:43:56.795Z,17.68
2018-11-13T13:46:27.644Z,17.65
2018-11-13T13:48:58.345Z,17.68
2018-11-13T13:51:29.602Z,17.65
2018-11-13T13:54:00.341Z,17.75
2018-11-13T13:56:33.544Z,17.51
2018-11-13T13:59:06.312Z,17.52
2018-11-13T14:01:37.048Z,17.59
2018-11-13T14:04:08.146Z,17.47
2018-11-13T14:06:38.956Z,17.44
2018-11-13T14:09:11.135Z,17.41
2018-11-13T14:11:42.211Z,17.46
2018-11-13T14:14:13.125Z,17.49
2018-11-13T14:16:43.881Z,17.41
2018-11-13T14:19:14.636Z,17.64
2018-11-13T14:21:45.362Z,17.51
2018-11-13T14:24:16.082Z,17.41
2018-11-13T14:26:46.755Z,17.56
2018-11-13T14:29:17.551Z,17.51
2018-11-13T14:31:48.210Z,17.46
2018-11-13T14:34:18.881Z,17.28
2018-11-13T14:36:49.968Z,17.08
2018-11-13T14:39:20.725Z,16.95
2018-11-13T14:41:51.514Z,16.94
2018-11-13T14:44:22.173Z,17.02
2018-11-13T14:46:52.840Z,16.97
2018-11-13T14:49:23.556Z,16.91
2018-11-13T14:51:54.209Z,16.82
2018-11-13T14:54:24.909Z,16.75
2018-11-13T14:56:55.807Z,16.74
2018-11-13T14:59:26.444Z,16.65
2018-11-13T15:01:57.137Z,16.37
2018-11-13T15:04:28.022Z,16.53
2018-11-13T15:06:58.725Z,16.57
2018-11-13T15:09:29.406Z,16.47
2018-11-13T15:12:00.078Z,16.46
2018-11-13T15:14:32.809Z,16.27
2018-11-13T15:17:11.149Z,16.28
2018-11-13T15:19:41.854Z,16.32
2018-11-13T15:22:13.523Z,16.24
2018-11-13T15:24:44.273Z,16.07
2018-11-13T15:27:14.956Z,15.98
2018-11-13T15:29:45.620Z,15.98
2018-11-13T15:32:16.325Z,15.91
2018-11-13T15:34:47.151Z,15.90
2018-11-13T15:37:17.973Z,15.85
2018-11-13T15:39:48.725Z,15.84
2018-11-13T15:42:19.482Z,15.88
2018-11-13T15:44:50.251Z,15.87
2018-11-13T15:47:20.891Z,15.92
2018-11-13T15:49:51.623Z,15.86
2018-11-13T15:52:22.367Z,15.75
2018-11-13T15:54:53.074Z,15.72
2018-11-13T15:57:23.724Z,15.62
2018-11-13T15:59:54.512Z,15.59
2018-11-13T16:02:26.093Z,15.49
2018-11-13T16:04:56.771Z,15.42
2018-11-13T16:07:27.930Z,15.37
2018-11-13T16:10:00.708Z,15.37
2018-11-13T16:12:34.689Z,15.38
2018-11-13T16:15:08.314Z,15.37
2018-11-13T16:17:39.641Z,15.37
2018-11-13T16:20:10.592Z,15.32
2018-11-13T16:22:41.241Z,15.32
2018-11-13T16:25:12.341Z,15.30
2018-11-13T16:27:43.047Z,15.24
2018-11-13T16:30:16.454Z,15.34
2018-11-13T16:32:47.961Z,15.20
2018-11-13T16:35:19.475Z,15.14
2018-11-13T16:37:50.776Z,15.15
2018-11-13T16:40:25.608Z,15.05
2018-11-13T16:42:56.377Z,15.00
2018-11-13T16:45:27.926Z,15.00
2018-11-13T16:47:59.344Z,14.91
2018-11-13T16:50:32.357Z,14.77
2018-11-13T16:53:06.237Z,14.75
2018-11-13T16:55:42.268Z,14.48
2018-11-13T16:58:14.811Z,14.47
2018-11-13T17:00:45.638Z,14.34
2018-11-13T17:03:16.385Z,14.37
2018-11-13T17:05:47.123Z,14.28
2018-11-13T17:08:17.800Z,14.21
2018-11-13T17:10:49.432Z,14.07
2018-11-13T17:13:20.241Z,14.09
2018-11-13T17:15:50.951Z,13.90
2018-11-13T17:18:22.218Z,13.77
2018-11-13T17:20:53.667Z,13.68
2018-11-13T17:23:25.108Z,13.62
2018-11-13T17:25:56.074Z,13.57
2018-11-13T17:28:26.699Z,13.58
2018-11-13T17:30:57.415Z,13.49
2018-11-13T17:33:28.201Z,13.37
2018-11-13T17:35:59.429Z,13.46
2018-11-13T17:38:30.135Z,13.36
2018-11-13T17:41:05.055Z,13.31
2018-11-13T17:43:36.013Z,13.20
2018-11-13T17:46:07.173Z,13.14
2018-11-13T17:48:38.492Z,13.10
2018-11-13T17:51:09.258Z,13.05
2018-11-13T17:53:40.111Z,12.96
2018-11-13T17:56:10.763Z,12.84
2018-11-13T17:58:41.487Z,12.75
2018-11-13T18:01:12.222Z,12.64
2018-11-13T18:03:42.932Z,12.47
2018-11-13T18:06:13.653Z,12.34
2018-11-13T18:08:44.512Z,12.35
2018-11-13T18:11:15.332Z,12.28
2018-11-13T18:13:46.137Z,12.28
2018-11-13T18:16:16.820Z,12.22
2018-11-13T18:18:47.770Z,12.19
2018-11-13T18:21:19.361Z,12.12
2018-11-13T18:23:50.112Z,12.14
2018-11-13T18:26:20.830Z,12.03
2018-11-13T18:28:52.393Z,11.99
2018-11-13T18:31:24.045Z,11.96
2018-11-13T18:33:54.785Z,12.02
2018-11-13T18:36:25.507Z,11.99
2018-11-13T18:38:56.382Z,11.96
2018-11-13T18:41:27.259Z,11.90
2018-11-13T18:43:58.162Z,11.83
2018-11-13T18:46:29.013Z,11.81
2018-11-13T18:48:59.688Z,11.75
2018-11-13T18:51:30.425Z,11.73
2018-11-13T18:54:05.048Z,11.76
2018-11-13T18:56:36.802Z,11.83
2018-11-13T18:59:09.225Z,11.78
2018-11-13T19:01:40.319Z,11.67
2018-11-13T19:04:11.105Z,11.59
2018-11-13T19:06:41.837Z,11.56
2018-11-13T19:09:13.271Z,11.49
2018-11-13T19:11:44.252Z,11.36
2018-11-13T19:14:15.122Z,11.37
2018-11-13T19:16:45.905Z,11.33
2018-11-13T19:19:16.647Z,11.37
2018-11-13T19:21:47.610Z,11.30
2018-11-13T19:24:18.555Z,11.22
2018-11-13T19:26:50.161Z,11.12
2018-11-13T19:29:20.941Z,11.04
2018-11-13T19:31:51.698Z,11.05
2018-11-13T19:34:22.793Z,11.03
2018-11-13T19:36:54.363Z,11.04
2018-11-13T19:39:25.737Z,11.11
2018-11-13T19:41:58.196Z,11.14
2018-11-13T19:44:29.347Z,11.17
2018-11-13T19:47:00.149Z,11.11
2018-11-13T19:49:35.485Z,11.06
2018-11-13T19:52:08.435Z,10.95
2018-11-13T19:54:39.450Z,11.00
2018-11-13T19:57:10.333Z,10.96
2018-11-13T19:59:41.132Z,10.83
2018-11-13T20:02:11.896Z,10.81
2018-11-13T20:04:43.830Z,10.69
2018-11-13T20:07:14.962Z,10.66
2018-11-13T20:09:46.482Z,10.67
2018-11-13T20:12:18.534Z,10.72
2018-11-13T20:14:49.359Z,10.69
2018-11-13T20:17:20.616Z,10.79
2018-11-13T20:19:51.593Z,10.81
2018-11-13T20:22:22.362Z,10.76
2018-11-13T20:24:54.571Z,10.78
2018-11-13T20:27:25.376Z,10.64
2018-11-13T20:29:56.113Z,10.57
2018-11-13T20:32:26.834Z,10.51
2018-11-13T20:34:57.621Z,10.53
2018-11-13T20:37:28.362Z,10.47
2018-11-13T20:39:59.866Z,10.42
2018-11-13T20:42:30.546Z,10.37
2018-11-13T20:45:02.396Z,10.37
2018-11-13T20:47:33.262Z,10.38
2018-11-13T20:50:05.901Z,10.34
2018-11-13T20:52:36.883Z,10.30
2018-11-13T20:55:08.168Z,10.26
2018-11-13T20:57:39.369Z,10.22
2018-11-13T21:00:16.103Z,10.16
2018-11-13T21:02:47.228Z,10.15
2018-11-13T21:05:18.737Z,10.11
2018-11-13T21:07:49.638Z,10.10
2018-11-13T21:10:23.202Z,10.05
2018-11-13T21:12:54.119Z,10.04
2018-11-13T21:15:24.920Z,9.98
2018-11-13T21:17:55.741Z,10.00
2018-11-13T21:20:26.717Z,9.88
2018-11-13T21:22:58.519Z,9.81
2018-11-13T21:25:29.953Z,9.67
2018-11-13T21:28:03.234Z,9.60
2018-11-13T21:30:35.549Z,9.57
2018-11-13T21:33:12.549Z,9.49
2018-11-13T21:35:43.768Z,9.53
2018-11-13T21:38:15.141Z,9.52
2018-11-13T21:40:45.932Z,9.45
2018-11-13T21:43:17.246Z,9.39
2018-11-13T21:45:47.968Z,9.32
2018-11-13T21:48:18.747Z,9.34
2018-11-13T21:50:49.490Z,9.31
2018-11-13T21:53:20.227Z,9.27
2018-11-13T21:55:51.015Z,9.23
2018-11-13T21:58:22.401Z,9.25
2018-11-13T22:00:53.963Z,9.06
2018-11-13T22:03:25.266Z,9.02
2018-11-13T22:05:55.962Z,9.03
2018-11-13T22:08:33.609Z,9.10
2018-11-13T22:11:14.834Z,9.04
2018-11-13T22:13:54.267Z,8.98
2018-11-13T22:16:43.711Z,9.08
2018-11-13T22:19:26.619Z,9.04
2018-11-13T22:22:12.506Z,9.02
2018-11-13T22:24:55.050Z,8.93
2018-11-13T22:27:40.442Z,8.95
2018-11-13T22:30:20.681Z,8.92
2018-11-13T22:33:04.978Z,8.86
2018-11-13T22:35:47.015Z,8.59
2018-11-13T22:38:29.806Z,8.89
2018-11-13T22:44:08.211Z,8.88
2018-11-13T22:46:55.435Z,8.90
2018-11-13T22:49:44.725Z,8.81
2018-11-13T22:52:37.520Z,8.73
2018-11-13T22:55:27.012Z,8.65
2018-11-13T22:58:10.240Z,8.61
2018-11-13T23:00:57.628Z,8.62
2018-11-13T23:03:37.384Z,8.60
2018-11-13T23:06:08.957Z,8.67
2018-11-13T23:08:48.887Z,8.64
2018-11-13T23:11:30.927Z,8.56
2018-11-13T23:14:09.013Z,8.52
2018-11-13T23:16:41.908Z,8.50
2018-11-13T23:19:12.685Z,8.38
2018-11-13T23:21:43.445Z,8.56
2018-11-13T23:24:14.193Z,8.54
2018-11-13T23:26:45.062Z,8.42
2018-11-13T23:29:15.758Z,8.43
2018-11-13T23:31:46.662Z,8.37
2018-11-13T23:34:17.864Z,8.32
2018-11-13T23:36:48.675Z,8.27
2018-11-13T23:39:19.462Z,7.87
2018-11-13T23:42:06.838Z,8.20
2018-11-13T23:44:37.390Z,8.13
2018-11-13T23:47:08.910Z,8.11
2018-11-13T23:49:40.419Z,8.09
2018-11-13T23:52:10.994Z,8.10
2018-11-13T23:54:42.559Z,8.15
2018-11-13T23:57:13.478Z,8.18
2018-11-13T23:59:44.315Z,8.15
